createdAt,value
2022-09-25T00:02:10.378Z,659.47
2022-09-25T00:04:39.095Z,703.10
2022-09-25T00:07:07.620Z,514.13
2022-09-25T00:09:36.567Z,494.92
2022-09-25T00:12:05.187Z,565.97
2022-09-25T00:14:33.826Z,531.72
2022-09-25T00:17:03.398Z,447.77
2022-09-25T00:19:55.102Z,516.15
2022-09-25T00:22:27.010Z,535.75
2022-09-25T00:24:55.662Z,509.40
2022-09-25T00:27:24.132Z,507.42
2022-09-25T00:29:53.581Z,451.42
2022-09-25T00:32:22.103Z,404.25
2022-09-25T00:34:52.233Z,405.10
2022-09-25T00:37:21.226Z,490.45
2022-09-25T00:39:49.741Z,478.88
2022-09-25T00:42:21.504Z,483.00
2022-09-25T00:44:57.584Z,500.33
2022-09-25T00:47:46.280Z,494.75
2022-09-25T00:50:26.251Z,529.65
2022-09-25T00:53:04.122Z,525.10
2022-09-25T00:55:35.233Z,534.42
2022-09-25T00:58:05.262Z,466.55
2022-09-25T01:00:34.908Z,403.60
2022-09-25T01:03:05.279Z,449.98
2022-09-25T01:05:38.427Z,310.73
2022-09-25T01:08:10.323Z,270.92
2022-09-25T01:10:38.884Z,272.10
2022-09-25T01:13:07.984Z,274.92
2022-09-25T01:15:45.530Z,237.60
2022-09-25T01:18:26.426Z,237.07
2022-09-25T01:21:06.467Z,260.98
2022-09-25T01:23:57.396Z,308.05
2022-09-25T01:26:45.176Z,340.80
2022-09-25T01:29:19.353Z,380.58
2022-09-25T01:31:53.313Z,395.35
2022-09-25T01:34:28.622Z,428.75
2022-09-25T01:37:03.725Z,345.27
2022-09-25T01:39:36.622Z,350.92
2022-09-25T01:42:12.043Z,352.25
2022-09-25T01:44:47.633Z,387.23
2022-09-25T01:47:22.567Z,388.98
2022-09-25T01:49:56.925Z,485.05
2022-09-25T01:52:33.149Z,638.08
2022-09-25T01:55:10.003Z,507.77
2022-09-25T01:57:45.392Z,608.47
2022-09-25T02:00:19.095Z,638.30
2022-09-25T02:02:55.409Z,550.13
2022-09-25T02:05:29.662Z,420.85
2022-09-25T02:08:03.039Z,697.65
2022-09-25T02:10:36.832Z,627.97
2022-09-25T02:13:10.669Z,649.47
2022-09-25T02:15:45.146Z,579.15
2022-09-25T02:18:34.906Z,618.25
2022-09-25T02:21:14.331Z,254.80
2022-09-25T02:23:52.143Z,501.63
2022-09-25T02:26:27.386Z,582.03
2022-09-25T02:28:56.614Z,687.97
2022-09-25T02:31:35.899Z,585.08
2022-09-25T02:34:05.361Z,703.95
2022-09-25T02:36:36.315Z,709.47
2022-09-25T02:39:07.925Z,711.72
2022-09-25T02:41:50.558Z,554.58
2022-09-25T02:44:29.266Z,650.22
2022-09-25T02:47:14.313Z,717.70
2022-09-25T02:49:52.436Z,104.22
2022-09-25T02:52:29.164Z,7.35
2022-09-25T02:55:04.115Z,13.50
2022-09-25T02:57:40.894Z,6.82
2022-09-25T03:00:10.997Z,3.72
2022-09-25T03:02:46.839Z,6.97
2022-09-25T03:05:18.678Z,3.63
2022-09-25T03:08:04.431Z,3.22
2022-09-25T03:10:36.324Z,15.98
2022-09-25T03:13:15.524Z,21.60
2022-09-25T03:15:48.199Z,5.80
2022-09-25T03:18:18.361Z,9.88
2022-09-25T03:20:46.967Z,2.92
2022-09-25T03:23:15.796Z,3.28
2022-09-25T03:25:49.748Z,20.02
2022-09-25T03:28:19.658Z,12.30
2022-09-25T03:30:58.502Z,9.70
2022-09-25T03:33:29.899Z,4.90
2022-09-25T03:36:07.090Z,5.10
2022-09-25T03:38:35.608Z,22.40
2022-09-25T03:41:06.943Z,3.85
2022-09-25T03:43:37.491Z,11.07
2022-09-25T03:46:06.286Z,4.30
2022-09-25T03:48:36.676Z,3.80
2022-09-25T03:51:06.427Z,51.13
2022-09-25T03:53:35.809Z,81.65
2022-09-25T03:56:07.335Z,4.78
2022-09-25T03:58:36.697Z,5.93
2022-09-25T04:04:16.531Z,7.28
2022-09-25T04:06:46.150Z,2.05
2022-09-25T04:09:14.607Z,41.92
2022-09-25T04:11:43.127Z,1.35
2022-09-25T04:14:12.695Z,35.78
2022-09-25T04:16:42.012Z,2.85
2022-09-25T04:19:11.819Z,46.33
2022-09-25T04:21:41.668Z,2.78
2022-09-25T04:24:27.600Z,83.32
2022-09-25T04:26:56.034Z,6.15
2022-09-25T04:29:24.979Z,62.70
2022-09-25T04:32:07.424Z,3.10
2022-09-25T04:34:36.013Z,17.35
2022-09-25T04:37:06.071Z,7.35
2022-09-25T04:39:34.539Z,1.17
2022-09-25T04:42:03.144Z,5.13
2022-09-25T04:44:31.664Z,11.38
2022-09-25T04:47:00.175Z,4.78
2022-09-25T04:49:28.885Z,114.03
2022-09-25T04:51:57.496Z,3.22
2022-09-25T04:54:27.717Z,2.75
2022-09-25T04:56:57.663Z,3.85
2022-09-25T04:59:26.155Z,97.25
2022-09-25T05:01:54.699Z,42.97
2022-09-25T05:04:23.222Z,100.40
2022-09-25T05:06:51.687Z,338.63
2022-09-25T05:09:20.189Z,25.48
2022-09-25T05:11:50.014Z,37.72
2022-09-25T05:14:18.597Z,189.32
2022-09-25T05:16:47.491Z,165.43
2022-09-25T05:19:16.697Z,2.95
2022-09-25T05:21:45.724Z,1.83
2022-09-25T05:24:14.232Z,6.68
2022-09-25T05:26:43.028Z,5.53
2022-09-25T05:29:12.896Z,2.72
2022-09-25T05:31:42.916Z,2.70
2022-09-25T05:34:11.632Z,3.42
2022-09-25T05:36:40.065Z,2.08
2022-09-25T05:39:14.443Z,2.17
2022-09-25T05:41:43.267Z,2.38
2022-09-25T05:44:15.036Z,3.58
2022-09-25T05:46:43.583Z,3.90
2022-09-25T05:49:12.020Z,22.33
2022-09-25T05:51:40.520Z,2.35
2022-09-25T05:54:09.180Z,3.88
2022-09-25T05:56:37.796Z,3.33
2022-09-25T05:59:06.463Z,28.27
2022-09-25T06:01:36.372Z,2.63
2022-09-25T06:04:04.867Z,4.25
2022-09-25T06:06:33.323Z,72.18
2022-09-25T06:09:01.749Z,91.95
2022-09-25T06:11:31.725Z,5.85
2022-09-25T06:14:00.174Z,89.82
2022-09-25T06:16:28.679Z,5.22
2022-09-25T06:18:58.572Z,96.60
2022-09-25T06:21:27.148Z,132.43
2022-09-25T06:23:55.997Z,2.75
2022-09-25T06:26:26.028Z,3.00
2022-09-25T06:28:55.961Z,3.97
2022-09-25T06:31:27.182Z,211.20
2022-09-25T06:33:56.079Z,241.05
2022-09-25T06:36:27.379Z,9.02
2022-09-25T06:38:56.260Z,25.02
2022-09-25T06:41:25.085Z,8.85
2022-09-25T06:43:55.239Z,13.43
2022-09-25T06:46:24.111Z,196.68
2022-09-25T06:48:54.541Z,30.63
2022-09-25T06:51:23.530Z,3.65
2022-09-25T06:53:55.942Z,5.18
2022-09-25T06:56:24.479Z,4.63
2022-09-25T06:58:52.966Z,6.15
2022-09-25T07:01:21.570Z,6.15
2022-09-25T07:03:49.929Z,17.17
2022-09-25T07:06:20.279Z,13.48
2022-09-25T07:08:49.504Z,13.60
2022-09-25T07:11:20.913Z,4.15
2022-09-25T07:13:55.456Z,6.78
2022-09-25T07:16:25.699Z,6.30
2022-09-25T07:18:55.735Z,3.28
2022-09-25T07:21:27.865Z,5.90
2022-09-25T07:23:57.633Z,3.00
2022-09-25T07:26:28.964Z,8.80
2022-09-25T07:28:59.458Z,67.55
2022-09-25T07:31:29.662Z,13.88
2022-09-25T07:33:59.758Z,105.72
2022-09-25T07:36:28.740Z,58.30
2022-09-25T07:38:57.176Z,7.88
2022-09-25T07:41:27.416Z,7.30
2022-09-25T07:46:46.487Z,13.48
2022-09-25T07:49:15.239Z,27.30
2022-09-25T07:51:43.670Z,32.93
2022-09-25T07:54:12.220Z,14.50
2022-09-25T07:56:42.073Z,14.25
2022-09-25T07:59:10.996Z,11.30
2022-09-25T08:01:44.683Z,8.38
2022-09-25T08:04:14.847Z,37.90
2022-09-25T08:06:43.477Z,5.32
2022-09-25T08:09:12.531Z,5.97
2022-09-25T08:11:43.085Z,6.20
2022-09-25T08:14:14.516Z,8.80
2022-09-25T08:16:43.907Z,7.15
2022-09-25T08:19:12.772Z,7.47
2022-09-25T08:21:41.701Z,3.53
2022-09-25T08:24:10.924Z,3.20
2022-09-25T08:26:39.497Z,7.30
2022-09-25T08:29:09.538Z,3.38
2022-09-25T08:31:38.165Z,6.28
2022-09-25T08:34:35.848Z,2.25
2022-09-25T08:36:58.130Z,2.80
2022-09-25T08:39:26.726Z,5.53
2022-09-25T08:41:56.627Z,2.25
2022-09-25T08:44:32.425Z,4.55
2022-09-25T08:47:24.345Z,3.13
2022-09-25T08:50:05.932Z,2.42
2022-09-25T08:52:35.753Z,4.10
2022-09-25T08:55:05.046Z,3.10
2022-09-25T08:57:40.367Z,1.95
2022-09-25T09:00:20.352Z,1.85
2022-09-25T09:02:54.394Z,1.70
2022-09-25T09:05:27.232Z,2.13
2022-09-25T09:08:00.517Z,2.67
2022-09-25T09:10:35.270Z,1.90
2022-09-25T09:13:15.234Z,3.13
2022-09-25T09:15:51.329Z,5.50
2022-09-25T09:18:24.387Z,2.22
2022-09-25T09:20:56.765Z,2.80
2022-09-25T09:23:28.709Z,3.88
2022-09-25T09:26:03.144Z,3.78
2022-09-25T09:29:04.908Z,5.82
2022-09-25T09:31:46.964Z,4.95
2022-09-25T09:35:04.259Z,3.40
2022-09-25T09:37:31.872Z,3.58
2022-09-25T09:40:19.263Z,3.60
2022-09-25T09:42:56.565Z,3.58
2022-09-25T09:45:33.276Z,2.00
2022-09-25T09:48:14.077Z,4.72
2022-09-25T09:50:51.373Z,2.63
2022-09-25T09:53:30.531Z,2.92
2022-09-25T09:56:06.426Z,2.50
2022-09-25T09:58:48.487Z,1.63
2022-09-25T10:01:40.241Z,2.25
2022-09-25T10:04:12.073Z,3.80
2022-09-25T10:06:46.795Z,2.05
2022-09-25T10:09:17.277Z,4.15
2022-09-25T10:11:48.493Z,3.92
2022-09-25T10:14:22.100Z,4.53
2022-09-25T10:16:52.900Z,2.22
2022-09-25T10:19:24.946Z,2.33
2022-09-25T10:22:00.266Z,3.33
2022-09-25T10:24:52.959Z,2.28
2022-09-25T10:27:33.077Z,26.23
2022-09-25T10:30:22.776Z,48.22
2022-09-25T10:32:59.189Z,28.50
2022-09-25T10:35:31.398Z,323.52
2022-09-25T10:38:02.521Z,134.13
2022-09-25T10:40:34.282Z,532.22
2022-09-25T10:43:15.874Z,223.73
2022-09-25T10:45:45.462Z,292.75
2022-09-25T10:48:46.168Z,72.57
2022-09-25T10:51:18.520Z,619.60
2022-09-25T10:53:48.038Z,499.42
2022-09-25T10:56:21.806Z,34.97
2022-09-25T10:58:55.853Z,26.95
2022-09-25T11:01:33.659Z,155.63
2022-09-25T11:04:06.512Z,38.92
2022-09-25T11:06:37.227Z,479.73
2022-09-25T11:09:14.078Z,480.23
2022-09-25T11:11:44.325Z,61.38
2022-09-25T11:14:22.457Z,68.88
2022-09-25T11:16:54.129Z,471.50
2022-09-25T11:19:27.203Z,998.78
2022-09-25T11:22:08.192Z,998.83
2022-09-25T11:24:51.475Z,62.15
2022-09-25T11:27:25.998Z,113.88
2022-09-25T11:30:06.380Z,175.75
2022-09-25T11:32:42.728Z,180.18
2022-09-25T11:35:26.439Z,183.70
2022-09-25T11:38:05.435Z,186.07
2022-09-25T11:41:02.405Z,703.40
2022-09-25T11:43:47.688Z,35.33
2022-09-25T11:46:23.624Z,75.05
2022-09-25T11:49:09.933Z,814.60
2022-09-25T11:52:22.912Z,932.33
2022-09-25T11:55:16.137Z,12.10
2022-09-25T11:57:57.221Z,7.38
2022-09-25T12:00:32.901Z,19.83
2022-09-25T12:03:11.974Z,64.88
2022-09-25T12:05:58.844Z,251.88
2022-09-25T12:08:44.143Z,976.95
2022-09-25T12:11:23.844Z,87.10
2022-09-25T12:13:59.816Z,1008.65
2022-09-25T12:16:37.282Z,1007.70
2022-09-25T12:19:16.954Z,30.33
2022-09-25T12:21:50.891Z,74.78
2022-09-25T12:24:33.073Z,394.98
2022-09-25T12:27:12.027Z,575.53
2022-09-25T12:30:00.850Z,782.88
2022-09-25T12:32:48.974Z,744.88
2022-09-25T12:35:35.168Z,5.93
2022-09-25T12:38:12.036Z,28.35
2022-09-25T12:40:46.399Z,78.68
2022-09-25T12:43:24.281Z,760.40
2022-09-25T12:45:58.841Z,888.25
2022-09-25T12:48:33.178Z,842.70
2022-09-25T12:51:08.972Z,876.83
2022-09-25T12:53:41.560Z,452.75
2022-09-25T12:56:15.523Z,400.20
2022-09-25T12:58:55.541Z,395.73
2022-09-25T13:01:35.423Z,106.35
2022-09-25T13:04:22.649Z,38.70
2022-09-25T13:06:54.334Z,90.63
2022-09-25T13:09:36.896Z,165.85
2022-09-25T13:12:10.569Z,153.35
2022-09-25T13:14:46.754Z,172.48
2022-09-25T13:17:16.485Z,48.28
2022-09-25T13:19:45.078Z,25.92
2022-09-25T13:22:20.607Z,115.72
2022-09-25T13:24:53.618Z,21.95
2022-09-25T13:27:24.889Z,57.40
2022-09-25T13:30:02.893Z,95.53
2022-09-25T13:32:35.400Z,45.50
2022-09-25T13:35:07.794Z,51.17
2022-09-25T13:37:38.667Z,157.27
2022-09-25T13:40:35.414Z,215.32
2022-09-25T13:43:24.241Z,219.88
2022-09-25T13:46:28.426Z,144.13
2022-09-25T13:49:36.007Z,226.85
2022-09-25T13:52:04.471Z,29.17
2022-09-25T13:54:34.990Z,51.15
2022-09-25T13:57:03.943Z,68.63
2022-09-25T13:59:41.462Z,71.25
2022-09-25T14:02:43.864Z,141.70
2022-09-25T14:05:17.998Z,132.90
2022-09-25T14:07:48.617Z,128.68
2022-09-25T14:10:19.232Z,85.95
2022-09-25T14:12:49.826Z,139.82
2022-09-25T14:15:25.222Z,112.10
2022-09-25T14:17:57.039Z,115.85
2022-09-25T14:20:33.778Z,107.85
2022-09-25T14:23:06.303Z,33.85
2022-09-25T14:25:38.326Z,124.80
2022-09-25T14:28:20.324Z,119.20
2022-09-25T14:31:05.810Z,137.25
2022-09-25T14:33:53.696Z,116.35
2022-09-25T14:36:35.060Z,116.60
2022-09-25T14:39:20.229Z,124.65
2022-09-25T14:42:04.503Z,131.27
2022-09-25T14:44:50.448Z,99.35
2022-09-25T14:47:21.526Z,112.22
2022-09-25T14:49:54.840Z,115.57
2022-09-25T14:52:27.764Z,120.45
2022-09-25T14:54:57.889Z,125.22
2022-09-25T14:57:29.479Z,63.13
2022-09-25T15:00:01.212Z,132.85
2022-09-25T15:02:34.471Z,78.03
2022-09-25T15:07:59.494Z,134.75
2022-09-25T15:10:31.727Z,117.32
2022-09-25T15:13:16.247Z,134.02
2022-09-25T15:16:07.451Z,96.97
2022-09-25T15:18:38.984Z,110.40
2022-09-25T15:21:09.553Z,107.38
2022-09-25T15:23:39.602Z,91.78
2022-09-25T15:26:15.027Z,80.50
2022-09-25T15:28:44.019Z,89.00
2022-09-25T15:31:12.918Z,98.13
2022-09-25T15:33:42.607Z,95.47
2022-09-25T15:36:17.962Z,111.18
2022-09-25T15:38:54.301Z,167.88
2022-09-25T15:41:23.946Z,168.27
2022-09-25T15:43:53.580Z,145.02
2022-09-25T15:46:41.176Z,129.32
2022-09-25T15:49:15.524Z,73.72
2022-09-25T15:51:52.771Z,133.45
2022-09-25T15:54:38.155Z,138.30
2022-09-25T15:57:13.399Z,106.15
2022-09-25T15:59:58.517Z,134.55
2022-09-25T16:02:51.187Z,133.93
2022-09-25T16:05:27.437Z,146.52
2022-09-25T16:08:17.619Z,183.25
2022-09-25T16:10:50.122Z,103.10
2022-09-25T16:13:22.426Z,132.60
2022-09-25T16:15:53.020Z,213.00
2022-09-25T16:18:32.172Z,155.65
2022-09-25T16:21:17.661Z,137.30
2022-09-25T16:23:55.967Z,140.20
2022-09-25T16:26:31.168Z,157.45
2022-09-25T16:29:08.495Z,144.60
2022-09-25T16:31:37.448Z,117.18
2022-09-25T16:34:08.730Z,106.80
2022-09-25T16:36:43.889Z,84.47
2022-09-25T16:39:17.099Z,99.05
2022-09-25T16:41:49.741Z,133.85
2022-09-25T16:44:20.669Z,116.93
2022-09-25T16:47:07.082Z,137.55
2022-09-25T16:49:36.281Z,137.27
2022-09-25T16:52:08.573Z,199.20
2022-09-25T16:54:39.351Z,227.30
2022-09-25T16:57:13.831Z,338.63
2022-09-25T16:59:42.307Z,38.10
2022-09-25T17:02:22.788Z,31.20
2022-09-25T17:04:52.062Z,72.88
2022-09-25T17:07:20.533Z,449.70
2022-09-25T17:09:48.960Z,357.92
2022-09-25T17:12:22.467Z,362.27
2022-09-25T17:14:51.662Z,468.45
2022-09-25T17:17:21.878Z,133.07
2022-09-25T17:19:51.248Z,575.75
2022-09-25T17:22:19.686Z,556.17
2022-09-25T17:24:48.146Z,614.83
2022-09-25T17:27:18.797Z,676.85
2022-09-25T17:29:48.234Z,480.15
2022-09-25T17:32:17.720Z,288.88
2022-09-25T17:34:47.214Z,341.52
2022-09-25T17:37:15.697Z,373.75
2022-09-25T17:39:44.128Z,661.47
2022-09-25T17:42:12.871Z,600.33
2022-09-25T17:44:43.883Z,703.63
2022-09-25T17:47:13.356Z,706.55
2022-09-25T17:49:42.065Z,0.50
2022-09-25T17:52:15.781Z,1.88
2022-09-25T17:54:44.767Z,4.72
2022-09-25T17:57:13.440Z,0.60
2022-09-25T17:59:43.603Z,0.77
2022-09-25T18:02:17.981Z,0.77
2022-09-25T18:04:46.531Z,1.40
2022-09-25T18:07:15.726Z,673.88
2022-09-25T18:09:44.182Z,678.95
2022-09-25T18:12:12.660Z,1.20
2022-09-25T18:14:46.435Z,5.40
2022-09-25T18:17:16.703Z,0.93
2022-09-25T18:20:02.815Z,0.93
2022-09-25T18:22:31.366Z,1.17
2022-09-25T18:25:00.036Z,3.00
2022-09-25T18:27:30.770Z,2.72
2022-09-25T18:30:00.870Z,1.95
2022-09-25T18:32:31.462Z,1.52
2022-09-25T18:34:59.944Z,3.85
2022-09-25T18:37:28.425Z,1.17
2022-09-25T18:39:56.905Z,2.60
2022-09-25T18:42:25.333Z,1.77
2022-09-25T18:44:53.820Z,4.85
2022-09-25T18:47:23.667Z,637.65
2022-09-25T18:49:52.546Z,556.65
2022-09-25T18:52:21.067Z,557.35
2022-09-25T18:54:49.510Z,356.98
2022-09-25T18:57:18.395Z,277.48
2022-09-25T18:59:47.020Z,284.00
2022-09-25T19:02:21.216Z,332.10
2022-09-25T19:04:52.829Z,180.98
2022-09-25T19:07:21.545Z,357.42
2022-09-25T19:09:50.158Z,538.42
2022-09-25T19:12:18.754Z,553.47
2022-09-25T19:14:48.559Z,515.35
2022-09-25T19:17:18.743Z,585.58
2022-09-25T19:19:47.158Z,520.72
2022-09-25T19:22:19.033Z,409.70
2022-09-25T19:24:47.993Z,360.92
2022-09-25T19:27:17.895Z,292.70
2022-09-25T19:29:46.763Z,374.70
2022-09-25T19:32:17.185Z,340.27
2022-09-25T19:34:45.668Z,377.20
2022-09-25T19:37:15.377Z,376.45
2022-09-25T19:40:02.793Z,366.38
2022-09-25T19:42:33.830Z,418.42
2022-09-25T19:45:02.442Z,447.38
2022-09-25T19:47:30.881Z,449.25
2022-09-25T19:49:59.541Z,420.73
2022-09-25T19:52:28.002Z,444.10
2022-09-25T19:54:57.925Z,465.85
2022-09-25T19:57:26.454Z,402.83
2022-09-25T19:59:55.057Z,435.80
2022-09-25T20:02:23.584Z,436.13
2022-09-25T20:04:52.623Z,406.00
2022-09-25T20:07:21.163Z,385.45
2022-09-25T20:09:49.732Z,463.33
2022-09-25T20:12:19.617Z,444.65
2022-09-25T20:14:49.462Z,392.95
2022-09-25T20:17:17.979Z,470.90
2022-09-25T20:19:46.663Z,447.45
2022-09-25T20:22:15.344Z,460.30
2022-09-25T20:24:43.776Z,415.15
2022-09-25T20:27:12.273Z,456.05
2022-09-25T20:29:42.230Z,434.70
2022-09-25T20:32:10.739Z,436.08
2022-09-25T20:34:39.254Z,418.80
2022-09-25T20:37:07.702Z,447.70
2022-09-25T20:39:36.112Z,426.50
2022-09-25T20:42:04.595Z,435.88
2022-09-25T20:44:33.008Z,440.98
2022-09-25T20:47:02.934Z,433.33
2022-09-25T20:49:31.431Z,411.25
2022-09-25T20:52:00.315Z,383.17
2022-09-25T20:54:29.289Z,416.67
2022-09-25T20:56:57.774Z,428.35
2022-09-25T20:59:26.641Z,422.25
2022-09-25T21:01:55.439Z,486.42
2022-09-25T21:04:25.428Z,506.77
2022-09-25T21:06:53.867Z,467.77
2022-09-25T21:09:25.731Z,425.13
2022-09-25T21:11:55.329Z,394.33
2022-09-25T21:14:28.325Z,398.48
2022-09-25T21:16:57.782Z,408.23
2022-09-25T21:19:28.150Z,371.13
2022-09-25T21:21:56.581Z,418.92
2022-09-25T21:24:25.023Z,366.75
2022-09-25T21:26:53.527Z,414.48
2022-09-25T21:29:22.109Z,440.10
2022-09-25T21:31:51.128Z,435.98
2022-09-25T21:34:20.671Z,411.45
2022-09-25T21:36:50.531Z,395.00
2022-09-25T21:39:21.019Z,391.40
2022-09-25T21:41:50.624Z,176.90
2022-09-25T21:44:24.323Z,360.25
2022-09-25T21:46:52.931Z,376.60
2022-09-25T21:49:22.517Z,396.77
2022-09-25T21:51:52.573Z,350.30
2022-09-25T21:54:22.052Z,371.52
2022-09-25T21:56:50.557Z,383.95
2022-09-25T21:59:19.385Z,459.02
2022-09-25T22:01:47.933Z,410.48
2022-09-25T22:04:17.212Z,428.38
2022-09-25T22:06:48.234Z,422.02
2022-09-25T22:09:19.691Z,435.40
2022-09-25T22:11:49.455Z,386.65
2022-09-25T22:14:19.138Z,439.85
2022-09-25T22:16:49.778Z,459.65
2022-09-25T22:19:20.141Z,512.80
2022-09-25T22:21:51.212Z,455.58
2022-09-25T22:24:21.882Z,488.10
2022-09-25T22:26:52.841Z,544.88
2022-09-25T22:29:22.132Z,459.48
2022-09-25T22:31:51.092Z,664.67
2022-09-25T22:34:22.582Z,564.05
2022-09-25T22:36:56.204Z,536.78
2022-09-25T22:39:30.077Z,546.95
2022-09-25T22:41:58.637Z,521.13
2022-09-25T22:44:27.465Z,535.03
2022-09-25T22:46:56.089Z,531.65
2022-09-25T22:49:24.717Z,550.63
2022-09-25T22:51:53.174Z,592.25
2022-09-25T22:54:22.198Z,583.65
2022-09-25T22:56:53.912Z,614.95
2022-09-25T22:59:22.416Z,657.80
2022-09-25T23:01:53.069Z,638.20
2022-09-25T23:04:24.660Z,604.63
2022-09-25T23:06:53.538Z,612.15
2022-09-25T23:09:25.092Z,610.05
2022-09-25T23:11:56.245Z,597.42
2022-09-25T23:14:26.674Z,602.72
2022-09-25T23:16:55.937Z,592.50
2022-09-25T23:19:25.168Z,609.10
2022-09-25T23:21:54.630Z,591.90
2022-09-25T23:24:23.643Z,600.60
2022-09-25T23:26:52.834Z,532.90
2022-09-25T23:29:23.670Z,606.17
2022-09-25T23:31:52.865Z,570.72
2022-09-25T23:34:21.782Z,603.95
2022-09-25T23:36:50.319Z,593.92
2022-09-25T23:39:21.138Z,603.13
2022-09-25T23:41:49.931Z,574.08
2022-09-25T23:44:18.720Z,531.53
2022-09-25T23:46:48.551Z,517.38
2022-09-25T23:49:17.194Z,580.40
2022-09-25T23:51:46.386Z,520.85
2022-09-25T23:54:15.241Z,566.63
2022-09-25T23:56:44.187Z,577.58
2022-09-25T23:59:13.930Z,603.33
